createdAt,value
2017-05-19T00:01:28.617Z,36.24
2017-05-19T00:03:56.055Z,35.54
2017-05-19T00:06:22.757Z,34.26
2017-05-19T00:08:49.498Z,31.52
2017-05-19T00:11:16.208Z,31.50
2017-05-19T00:13:42.885Z,33.24
2017-05-19T00:16:09.939Z,37.52
2017-05-19T00:18:36.622Z,32.42
2017-05-19T00:21:03.312Z,33.48
2017-05-19T00:23:30.020Z,32.20
2017-05-19T00:25:56.694Z,32.90
2017-05-19T00:28:23.392Z,33.32
2017-05-19T00:30:50.087Z,34.62
2017-05-19T00:33:16.790Z,31.64
2017-05-19T00:35:44.238Z,34.06
2017-05-19T00:38:10.922Z,33.06
2017-05-19T00:40:37.599Z,32.80
2017-05-19T00:43:04.306Z,34.22
2017-05-19T00:45:31.039Z,32.86
2017-05-19T00:47:57.743Z,32.82
2017-05-19T00:50:25.162Z,32.12
2017-05-19T00:52:51.843Z,33.34
2017-05-19T00:55:19.284Z,34.34
2017-05-19T00:57:46.059Z,35.06
2017-05-19T01:00:12.784Z,34.96
2017-05-19T01:02:40.263Z,34.48
2017-05-19T01:05:06.911Z,34.92
2017-05-19T01:07:33.601Z,35.24
2017-05-19T01:10:00.292Z,34.48
2017-05-19T01:12:26.990Z,34.42
2017-05-19T01:14:54.447Z,33.88
2017-05-19T01:17:21.138Z,36.22
2017-05-19T01:19:47.954Z,35.48
2017-05-19T01:22:15.380Z,34.08
2017-05-19T01:24:42.847Z,34.04
2017-05-19T01:27:09.523Z,33.62
2017-05-19T01:29:36.202Z,36.78
2017-05-19T01:32:02.908Z,35.16
2017-05-19T01:34:29.599Z,37.64
2017-05-19T01:36:56.424Z,35.58
2017-05-19T01:39:23.113Z,35.90
2017-05-19T01:41:50.548Z,35.36
2017-05-19T01:44:17.241Z,36.06
2017-05-19T01:46:43.914Z,36.20
2017-05-19T01:49:10.614Z,38.24
2017-05-19T01:51:37.295Z,37.34
2017-05-19T01:54:03.970Z,37.16
2017-05-19T01:56:31.400Z,36.32
2017-05-19T01:58:58.907Z,37.82
2017-05-19T02:01:25.615Z,37.70
2017-05-19T02:03:53.039Z,37.12
2017-05-19T02:06:19.710Z,38.22
2017-05-19T02:08:47.144Z,36.78
2017-05-19T02:11:13.831Z,35.06
2017-05-19T02:13:40.534Z,37.74
2017-05-19T02:16:07.228Z,36.20
2017-05-19T02:18:33.935Z,37.24
2017-05-19T02:21:01.380Z,38.20
2017-05-19T02:23:28.073Z,36.72
2017-05-19T02:25:54.769Z,36.40
2017-05-19T02:28:22.198Z,36.90
2017-05-19T02:30:48.886Z,35.30
2017-05-19T02:33:15.579Z,35.38
2017-05-19T02:35:42.275Z,34.44
2017-05-19T02:38:08.983Z,31.64
2017-05-19T02:40:36.410Z,35.02
2017-05-19T02:43:03.107Z,34.02
2017-05-19T02:45:29.813Z,35.66
2017-05-19T02:47:56.490Z,36.08
2017-05-19T02:50:23.195Z,33.74
2017-05-19T02:52:49.876Z,33.84
2017-05-19T02:55:16.570Z,36.62
2017-05-19T02:57:43.264Z,34.28
2017-05-19T03:00:09.950Z,39.12
2017-05-19T03:02:36.634Z,36.20
2017-05-19T03:05:03.369Z,36.40
2017-05-19T03:07:30.052Z,37.82
2017-05-19T03:09:56.735Z,35.28
2017-05-19T03:12:24.188Z,34.40
2017-05-19T03:14:51.615Z,36.46
2017-05-19T03:17:18.313Z,34.64
2017-05-19T03:19:45.021Z,36.28
2017-05-19T03:22:12.459Z,34.96
2017-05-19T03:24:39.168Z,36.16
2017-05-19T03:27:06.072Z,34.56
2017-05-19T03:29:33.514Z,35.36
2017-05-19T03:35:07.730Z,34.44
2017-05-19T03:37:34.423Z,34.24
2017-05-19T03:40:01.108Z,34.94
2017-05-19T03:42:27.800Z,35.32
2017-05-19T03:44:54.492Z,36.74
2017-05-19T03:47:21.203Z,37.00
2017-05-19T03:49:47.875Z,35.90
2017-05-19T03:52:14.559Z,38.06
2017-05-19T03:54:41.247Z,34.10
2017-05-19T03:57:07.927Z,37.68
2017-05-19T03:59:35.376Z,36.84
2017-05-19T04:02:02.050Z,34.46
2017-05-19T04:04:28.743Z,35.30
2017-05-19T04:06:55.434Z,37.54
2017-05-19T04:09:22.119Z,35.90
2017-05-19T04:11:48.819Z,38.94
2017-05-19T04:14:15.503Z,35.68
2017-05-19T04:16:42.191Z,40.24
2017-05-19T04:19:08.896Z,36.88
2017-05-19T04:21:35.607Z,35.68
2017-05-19T04:24:02.287Z,36.30
2017-05-19T04:26:29.712Z,35.02
2017-05-19T04:28:56.410Z,37.62
2017-05-19T04:31:23.112Z,37.28
2017-05-19T04:33:49.816Z,38.82
2017-05-19T04:36:16.499Z,39.52
2017-05-19T04:38:43.921Z,39.74
2017-05-19T04:41:10.606Z,41.94
2017-05-19T04:43:38.052Z,42.80
2017-05-19T04:46:05.507Z,43.14
2017-05-19T04:48:32.196Z,42.34
2017-05-19T04:50:58.876Z,43.54
2017-05-19T04:53:25.570Z,44.06
2017-05-19T04:55:52.265Z,43.78
2017-05-19T04:58:18.967Z,51.04
2017-05-19T05:00:45.648Z,50.68
2017-05-19T05:03:12.323Z,57.32
2017-05-19T05:05:39.012Z,57.96
2017-05-19T05:08:05.690Z,54.26
2017-05-19T05:10:32.448Z,59.44
2017-05-19T05:12:59.131Z,61.68
2017-05-19T05:15:25.911Z,60.66
2017-05-19T05:17:53.387Z,57.26
2017-05-19T05:20:20.066Z,55.84
2017-05-19T05:22:46.782Z,53.00
2017-05-19T05:25:13.458Z,50.24
2017-05-19T05:27:40.143Z,51.62
2017-05-19T05:30:06.823Z,50.46
2017-05-19T05:32:33.503Z,48.86
2017-05-19T05:35:00.954Z,45.70
2017-05-19T05:37:28.370Z,47.56
2017-05-19T05:39:55.050Z,46.20
2017-05-19T05:42:22.472Z,43.58
2017-05-19T05:44:49.164Z,38.80
2017-05-19T05:47:15.880Z,41.08
2017-05-19T05:49:42.567Z,40.36
2017-05-19T05:52:09.243Z,42.30
2017-05-19T05:54:36.239Z,40.90
2017-05-19T05:57:02.917Z,39.90
2017-05-19T05:59:30.612Z,35.12
2017-05-19T06:01:57.409Z,33.76
2017-05-19T06:04:24.088Z,32.96
2017-05-19T06:06:50.767Z,33.46
2017-05-19T06:09:17.446Z,32.84
2017-05-19T06:11:44.150Z,33.12
2017-05-19T06:14:10.829Z,33.00
2017-05-19T06:16:37.506Z,30.02
2017-05-19T06:19:04.923Z,29.30
2017-05-19T06:21:31.603Z,30.24
2017-05-19T06:23:59.051Z,27.18
2017-05-19T06:26:26.495Z,23.80
2017-05-19T06:28:53.172Z,23.54
2017-05-19T06:31:19.879Z,23.00
2017-05-19T06:33:46.559Z,22.88
2017-05-19T06:36:13.272Z,22.28
2017-05-19T06:38:40.691Z,23.72
2017-05-19T06:41:07.392Z,24.26
2017-05-19T06:43:34.071Z,23.54
2017-05-19T06:46:00.762Z,23.28
2017-05-19T06:48:28.232Z,23.96
2017-05-19T06:50:54.914Z,25.78
2017-05-19T06:53:21.618Z,24.08
2017-05-19T06:55:48.299Z,21.32
2017-05-19T06:58:14.971Z,19.42
2017-05-19T07:00:42.435Z,16.58
2017-05-19T07:03:09.864Z,15.62
2017-05-19T07:05:36.548Z,15.56
2017-05-19T07:08:03.233Z,14.52
2017-05-19T07:10:29.913Z,12.72
2017-05-19T07:12:56.636Z,11.24
2017-05-19T07:15:23.314Z,9.96
2017-05-19T07:17:50.012Z,9.28
2017-05-19T07:20:16.703Z,10.18
2017-05-19T07:22:43.371Z,11.22
2017-05-19T07:25:10.351Z,10.74
2017-05-19T07:27:37.771Z,10.12
2017-05-19T07:30:04.754Z,9.80
2017-05-19T07:32:32.204Z,10.30
2017-05-19T07:34:58.884Z,9.58
2017-05-19T07:37:25.567Z,9.36
2017-05-19T07:39:52.287Z,10.44
2017-05-19T07:42:18.980Z,9.80
2017-05-19T07:44:46.451Z,9.30
2017-05-19T07:47:13.157Z,10.62
2017-05-19T07:49:39.842Z,9.46
2017-05-19T07:52:06.515Z,9.96
2017-05-19T07:54:33.214Z,9.02
2017-05-19T07:56:59.891Z,9.30
2017-05-19T07:59:26.580Z,7.00
2017-05-19T08:01:54.034Z,6.68
2017-05-19T08:04:21.455Z,8.32
2017-05-19T08:06:48.147Z,7.62
2017-05-19T08:09:14.860Z,7.16
2017-05-19T08:11:41.550Z,6.60
2017-05-19T08:14:08.223Z,7.58
2017-05-19T08:16:34.939Z,6.86
2017-05-19T08:19:01.624Z,7.44
2017-05-19T08:21:28.303Z,7.58
2017-05-19T08:23:55.004Z,8.00
2017-05-19T08:26:21.692Z,7.62
2017-05-19T08:28:48.373Z,7.90
2017-05-19T08:31:15.098Z,8.76
2017-05-19T08:33:41.780Z,9.04
2017-05-19T08:36:09.202Z,10.60
2017-05-19T08:38:35.922Z,12.68
2017-05-19T08:41:02.611Z,9.10
2017-05-19T08:43:30.271Z,8.80
2017-05-19T08:45:57.735Z,8.68
2017-05-19T08:48:25.155Z,8.44
2017-05-19T08:50:51.854Z,11.80
2017-05-19T08:53:18.563Z,11.28
2017-05-19T08:55:45.555Z,12.42
2017-05-19T08:58:12.235Z,10.76
2017-05-19T09:00:38.930Z,9.90
2017-05-19T09:03:05.614Z,9.02
2017-05-19T09:05:32.290Z,9.62
2017-05-19T09:07:59.727Z,10.06
2017-05-19T09:10:26.407Z,10.34
2017-05-19T09:12:53.078Z,10.82
2017-05-19T09:15:19.788Z,12.06
2017-05-19T09:17:46.479Z,13.22
2017-05-19T09:20:13.159Z,14.14
2017-05-19T09:22:39.891Z,15.18
2017-05-19T09:25:06.574Z,13.60
2017-05-19T09:27:33.256Z,14.92
2017-05-19T09:30:00.716Z,15.52
2017-05-19T09:32:28.148Z,15.72
2017-05-19T09:34:54.832Z,14.96
2017-05-19T09:37:21.543Z,13.44
2017-05-19T09:39:48.229Z,12.02
2017-05-19T09:42:14.923Z,11.32
2017-05-19T09:44:41.619Z,10.58
2017-05-19T09:47:08.300Z,10.50
2017-05-19T09:49:35.034Z,10.70
2017-05-19T09:52:01.806Z,10.48
2017-05-19T09:54:29.228Z,10.14
2017-05-19T09:56:55.901Z,12.48
2017-05-19T09:59:22.615Z,10.98
2017-05-19T10:01:56.207Z,11.06
2017-05-19T10:04:22.907Z,12.72
2017-05-19T10:06:49.603Z,11.38
2017-05-19T10:09:16.287Z,12.38
2017-05-19T10:11:42.983Z,12.22
2017-05-19T10:14:09.672Z,14.58
2017-05-19T10:16:36.360Z,14.36
2017-05-19T10:19:03.067Z,15.02
2017-05-19T10:21:29.748Z,16.00
2017-05-19T10:23:56.432Z,15.84
2017-05-19T10:26:23.128Z,15.76
2017-05-19T10:28:49.808Z,15.16
2017-05-19T10:31:16.520Z,14.94
2017-05-19T10:33:44.384Z,14.78
2017-05-19T10:36:11.803Z,16.10
2017-05-19T10:38:38.502Z,19.34
2017-05-19T10:41:05.176Z,19.20
2017-05-19T10:43:31.867Z,18.14
2017-05-19T10:45:59.292Z,18.80
2017-05-19T10:48:25.984Z,20.68
2017-05-19T10:50:52.658Z,18.94
2017-05-19T10:53:19.363Z,19.76
2017-05-19T10:55:46.039Z,20.92
2017-05-19T10:58:12.718Z,20.06
2017-05-19T11:00:40.172Z,17.84
2017-05-19T11:03:07.624Z,17.74
2017-05-19T11:05:34.306Z,18.04
2017-05-19T11:08:01.016Z,16.70
2017-05-19T11:10:28.431Z,16.40
2017-05-19T11:12:55.107Z,17.96
2017-05-19T11:15:21.806Z,17.88
2017-05-19T11:17:48.483Z,17.76
2017-05-19T11:20:15.163Z,18.48
2017-05-19T11:22:41.863Z,16.84
2017-05-19T11:25:08.555Z,16.92
2017-05-19T11:27:35.233Z,16.10
2017-05-19T11:30:01.950Z,15.28
2017-05-19T11:32:28.644Z,17.20
2017-05-19T11:34:56.062Z,13.16
2017-05-19T11:37:22.779Z,10.72
2017-05-19T11:39:49.479Z,10.62
2017-05-19T11:42:16.948Z,9.32
2017-05-19T11:44:43.668Z,9.76
2017-05-19T11:47:11.091Z,7.48
2017-05-19T11:49:37.778Z,9.18
2017-05-19T11:52:05.225Z,8.96
2017-05-19T11:54:32.646Z,9.78
2017-05-19T11:56:59.322Z,10.06
2017-05-19T11:59:26.037Z,11.32
2017-05-19T12:01:52.730Z,10.42
2017-05-19T12:04:19.403Z,10.30
2017-05-19T12:06:46.139Z,11.38
2017-05-19T12:09:12.820Z,11.34
2017-05-19T12:11:39.478Z,11.26
2017-05-19T12:14:06.920Z,10.42
2017-05-19T12:16:33.592Z,11.70
2017-05-19T12:19:00.332Z,12.14
2017-05-19T12:21:27.019Z,11.08
2017-05-19T12:23:53.694Z,10.76
2017-05-19T12:26:21.107Z,11.92
2017-05-19T12:29:19.393Z,11.46
2017-05-19T12:31:46.121Z,11.30
2017-05-19T12:34:12.823Z,11.08
2017-05-19T12:36:39.520Z,10.82
2017-05-19T12:39:07.240Z,11.46
2017-05-19T12:41:33.944Z,11.24
2017-05-19T12:44:00.650Z,11.70
2017-05-19T12:46:27.334Z,10.62
2017-05-19T12:48:54.023Z,11.16
2017-05-19T12:51:20.730Z,10.76
2017-05-19T12:53:47.415Z,12.46
2017-05-19T12:56:14.122Z,11.20
2017-05-19T12:58:40.824Z,11.16
2017-05-19T13:01:07.520Z,10.04
2017-05-19T13:03:34.223Z,9.42
2017-05-19T13:06:00.907Z,10.48
2017-05-19T13:08:27.600Z,9.64
2017-05-19T13:10:54.320Z,9.90
2017-05-19T13:13:21.006Z,10.80
2017-05-19T13:15:47.691Z,9.66
2017-05-19T13:18:13.647Z,8.10
2017-05-19T13:20:40.339Z,9.06
2017-05-19T13:23:07.051Z,9.08
2017-05-19T13:25:33.735Z,7.70
2017-05-19T13:28:00.419Z,8.40
2017-05-19T13:30:27.126Z,7.80
2017-05-19T13:32:53.835Z,8.54
2017-05-19T13:35:20.552Z,9.16
2017-05-19T13:37:47.238Z,8.98
2017-05-19T13:40:13.931Z,8.98
2017-05-19T13:42:40.627Z,9.38
2017-05-19T13:45:07.307Z,9.98
2017-05-19T13:47:34.021Z,8.86
2017-05-19T13:50:00.706Z,8.58
2017-05-19T13:52:27.401Z,7.32
2017-05-19T13:54:54.550Z,7.14
2017-05-19T13:57:21.226Z,8.18
2017-05-19T13:59:47.944Z,7.72
2017-05-19T14:02:14.630Z,8.20
2017-05-19T14:04:41.331Z,8.36
2017-05-19T14:07:08.044Z,8.42
2017-05-19T14:09:34.739Z,8.26
2017-05-19T14:12:01.450Z,8.22
2017-05-19T14:14:28.133Z,8.70
2017-05-19T14:16:54.835Z,8.98
2017-05-19T14:19:21.530Z,9.12
2017-05-19T14:21:48.217Z,8.18
2017-05-19T14:24:15.092Z,8.64
2017-05-19T14:26:42.076Z,8.58
2017-05-19T14:29:08.779Z,7.58
2017-05-19T14:31:35.475Z,9.12
2017-05-19T14:34:02.159Z,8.30
2017-05-19T14:36:28.872Z,7.22
2017-05-19T14:38:55.555Z,8.10
2017-05-19T14:41:22.248Z,8.58
2017-05-19T14:43:49.175Z,8.08
2017-05-19T14:46:15.860Z,8.12
2017-05-19T14:48:42.579Z,8.06
2017-05-19T14:51:09.267Z,8.76
2017-05-19T14:53:35.965Z,9.42
2017-05-19T14:56:02.664Z,9.28
2017-05-19T14:58:29.343Z,10.08
2017-05-19T15:00:56.059Z,10.36
2017-05-19T15:03:22.743Z,10.60
2017-05-19T15:05:49.438Z,9.72
2017-05-19T15:08:16.382Z,11.60
2017-05-19T15:10:43.062Z,9.92
2017-05-19T15:13:10.071Z,9.46
2017-05-19T15:15:36.754Z,9.50
2017-05-19T15:18:03.451Z,11.00
2017-05-19T15:20:30.148Z,12.42
2017-05-19T15:22:56.834Z,13.26
2017-05-19T15:25:23.550Z,14.66
2017-05-19T15:27:50.239Z,12.04
2017-05-19T15:30:16.918Z,14.64
2017-05-19T15:32:43.624Z,14.48
2017-05-19T15:35:10.328Z,15.98
2017-05-19T15:37:37.028Z,12.90
2017-05-19T15:40:03.757Z,16.06
2017-05-19T15:42:30.494Z,14.38
2017-05-19T15:44:57.191Z,15.96
2017-05-19T15:47:24.286Z,21.10
2017-05-19T15:49:51.008Z,14.56
2017-05-19T15:52:17.717Z,15.54
2017-05-19T15:54:44.409Z,18.08
2017-05-19T15:57:11.111Z,12.56
2017-05-19T15:59:37.824Z,13.10
2017-05-19T16:02:04.523Z,12.90
2017-05-19T16:04:31.224Z,13.20
2017-05-19T16:06:57.906Z,13.34
2017-05-19T16:09:24.607Z,13.82
2017-05-19T16:11:51.315Z,15.06
2017-05-19T16:14:18.040Z,14.08
2017-05-19T16:16:44.740Z,15.00
2017-05-19T16:19:11.442Z,13.52
2017-05-19T16:21:38.135Z,14.66
2017-05-19T16:24:04.823Z,14.20
2017-05-19T16:26:31.544Z,15.70
2017-05-19T16:28:58.231Z,14.92
2017-05-19T16:31:24.940Z,16.12
2017-05-19T16:33:51.650Z,16.54
2017-05-19T16:36:18.351Z,17.60
2017-05-19T16:38:45.084Z,17.16
2017-05-19T16:41:11.781Z,16.62
2017-05-19T16:43:38.485Z,16.36
2017-05-19T16:46:05.199Z,18.18
2017-05-19T16:48:31.894Z,15.56
2017-05-19T16:50:58.598Z,14.40
2017-05-19T16:53:25.283Z,16.30
2017-05-19T16:55:51.963Z,13.60
2017-05-19T16:58:25.531Z,14.56
2017-05-19T17:00:52.227Z,13.72
2017-05-19T17:03:18.946Z,15.50
2017-05-19T17:05:45.647Z,15.92
2017-05-19T17:08:12.333Z,15.14
2017-05-19T17:10:39.050Z,16.48
2017-05-19T17:13:05.731Z,16.64
2017-05-19T17:15:32.415Z,15.28
2017-05-19T17:17:59.232Z,16.22
2017-05-19T17:20:25.915Z,15.50
2017-05-19T17:22:52.599Z,17.86
2017-05-19T17:25:19.303Z,17.86
2017-05-19T17:27:46.208Z,17.68
2017-05-19T17:30:12.914Z,17.86
2017-05-19T17:32:39.668Z,17.44
2017-05-19T17:35:06.355Z,16.42
2017-05-19T17:37:33.060Z,17.00
2017-05-19T17:39:59.759Z,18.86
2017-05-19T17:42:26.471Z,19.12
2017-05-19T17:44:53.164Z,20.36
2017-05-19T17:47:19.112Z,19.92
2017-05-19T17:49:45.820Z,18.16
2017-05-19T17:52:12.763Z,17.94
2017-05-19T17:54:39.484Z,20.38
2017-05-19T17:57:06.184Z,18.98
2017-05-19T17:59:32.891Z,21.44
2017-05-19T18:01:59.585Z,22.46
2017-05-19T18:04:26.288Z,24.84
2017-05-19T18:06:53.011Z,22.26
2017-05-19T18:09:19.706Z,26.44
2017-05-19T18:11:46.414Z,26.24
2017-05-19T18:14:13.147Z,22.98
2017-05-19T18:16:39.847Z,24.62
2017-05-19T18:19:06.579Z,21.62
2017-05-19T18:21:33.275Z,22.76
2017-05-19T18:23:59.967Z,22.16
2017-05-19T18:26:26.679Z,24.66
2017-05-19T18:28:53.375Z,22.06
2017-05-19T18:31:20.111Z,20.48
2017-05-19T18:33:46.813Z,21.60
2017-05-19T18:36:13.508Z,19.86
2017-05-19T18:38:40.247Z,19.24
2017-05-19T18:41:06.940Z,22.16
2017-05-19T18:43:33.655Z,20.98
2017-05-19T18:46:00.355Z,20.46
2017-05-19T18:48:27.048Z,20.16
2017-05-19T18:50:53.764Z,20.28
2017-05-19T18:53:20.451Z,20.82
2017-05-19T18:55:47.165Z,18.82
2017-05-19T18:58:13.866Z,18.58
2017-05-19T19:00:40.567Z,22.04
2017-05-19T19:03:07.265Z,17.82
2017-05-19T19:05:33.972Z,17.08
2017-05-19T19:08:00.687Z,16.98
2017-05-19T19:10:27.382Z,19.56
2017-05-19T19:12:54.089Z,19.26
2017-05-19T19:15:27.830Z,18.08
2017-05-19T19:17:54.658Z,18.36
2017-05-19T19:20:21.383Z,17.34
2017-05-19T19:22:48.070Z,19.02
2017-05-19T19:25:14.766Z,18.38
2017-05-19T19:27:41.462Z,20.02
2017-05-19T19:30:08.143Z,19.56
2017-05-19T19:32:34.843Z,20.26
2017-05-19T19:35:01.530Z,19.56
2017-05-19T19:37:28.227Z,20.06
2017-05-19T19:39:54.935Z,19.14
2017-05-19T19:42:21.707Z,19.72
2017-05-19T19:44:48.448Z,22.20
2017-05-19T19:47:15.135Z,19.94
2017-05-19T19:49:41.828Z,19.64
2017-05-19T19:52:08.526Z,20.84
2017-05-19T19:54:35.225Z,19.94
2017-05-19T19:57:01.939Z,20.02
2017-05-19T19:59:28.640Z,19.68
2017-05-19T20:01:55.323Z,22.26
2017-05-19T20:04:22.024Z,22.34
2017-05-19T20:06:48.746Z,21.26
2017-05-19T20:09:15.483Z,22.94
2017-05-19T20:11:42.180Z,20.88
2017-05-19T20:14:08.884Z,21.90
2017-05-19T20:16:35.589Z,21.48
2017-05-19T20:19:02.279Z,22.68
2017-05-19T20:21:29.016Z,21.68
2017-05-19T20:23:55.703Z,22.40
2017-05-19T20:26:22.395Z,22.72
2017-05-19T20:28:49.180Z,23.94
2017-05-19T20:31:15.879Z,23.08
2017-05-19T20:33:42.599Z,21.90
2017-05-19T20:36:09.304Z,22.26
2017-05-19T20:38:35.996Z,24.30
2017-05-19T20:41:02.688Z,26.04
2017-05-19T20:43:29.379Z,25.18
2017-05-19T20:45:56.107Z,24.66
2017-05-19T20:48:22.796Z,25.56
2017-05-19T20:50:49.495Z,26.82
2017-05-19T20:53:16.189Z,25.00
2017-05-19T20:55:42.891Z,24.42
2017-05-19T20:58:09.616Z,22.64
2017-05-19T21:00:36.309Z,24.62
2017-05-19T21:03:02.999Z,24.72
2017-05-19T21:05:29.743Z,23.00
2017-05-19T21:07:56.502Z,24.02
2017-05-19T21:10:23.196Z,25.02
2017-05-19T21:12:49.902Z,25.24
2017-05-19T21:15:16.603Z,25.74
2017-05-19T21:17:43.287Z,24.64
2017-05-19T21:20:10.012Z,25.62
2017-05-19T21:22:36.695Z,27.42
2017-05-19T21:25:03.391Z,27.76
2017-05-19T21:27:30.107Z,28.22
2017-05-19T21:29:56.845Z,27.18
2017-05-19T21:32:23.559Z,27.54
2017-05-19T21:34:50.264Z,27.08
2017-05-19T21:37:16.963Z,27.90
2017-05-19T21:39:43.672Z,29.64
2017-05-19T21:42:10.375Z,32.52
2017-05-19T21:44:37.101Z,30.70
2017-05-19T21:47:03.790Z,27.94
2017-05-19T21:49:30.492Z,30.98
2017-05-19T21:51:57.197Z,33.34
2017-05-19T21:54:23.897Z,31.74
2017-05-19T21:56:50.606Z,31.58
2017-05-19T21:59:17.300Z,33.22
2017-05-19T22:01:44.037Z,33.64
2017-05-19T22:04:10.735Z,34.34
2017-05-19T22:06:37.431Z,33.08
2017-05-19T22:09:04.156Z,35.02
2017-05-19T22:11:30.862Z,34.06
2017-05-19T22:13:57.558Z,33.24
2017-05-19T22:16:24.255Z,30.60
2017-05-19T22:18:50.952Z,30.82
2017-05-19T22:21:17.675Z,29.74
2017-05-19T22:23:44.374Z,32.02
2017-05-19T22:26:11.179Z,30.04
2017-05-19T22:28:37.880Z,29.22
2017-05-19T22:31:04.584Z,30.16
2017-05-19T22:33:31.320Z,28.54
2017-05-19T22:35:58.006Z,26.18
2017-05-19T22:38:24.701Z,27.40
2017-05-19T22:40:51.407Z,26.80
2017-05-19T22:43:18.096Z,26.74
2017-05-19T22:45:44.818Z,26.80
2017-05-19T22:48:11.500Z,27.58
2017-05-19T22:50:38.199Z,29.22
2017-05-19T22:53:04.904Z,29.08
2017-05-19T22:55:31.596Z,29.68
2017-05-19T22:57:58.316Z,28.30
2017-05-19T23:00:25.003Z,27.72
2017-05-19T23:02:51.707Z,28.90
2017-05-19T23:05:18.415Z,27.78
2017-05-19T23:07:45.207Z,27.52
2017-05-19T23:10:11.935Z,29.34
2017-05-19T23:12:38.628Z,28.34
2017-05-19T23:15:05.330Z,29.94
2017-05-19T23:17:32.030Z,29.90
2017-05-19T23:19:58.724Z,28.26
2017-05-19T23:22:25.447Z,29.00
2017-05-19T23:24:52.137Z,31.58
2017-05-19T23:27:18.829Z,32.54
2017-05-19T23:29:45.540Z,31.48
2017-05-19T23:32:12.234Z,31.46
2017-05-19T23:34:38.946Z,31.62
2017-05-19T23:37:05.639Z,32.44
2017-05-19T23:39:32.351Z,31.24
2017-05-19T23:41:59.061Z,33.08
2017-05-19T23:44:25.757Z,33.82
2017-05-19T23:46:52.479Z,34.02
2017-05-19T23:49:19.204Z,33.86
2017-05-19T23:51:45.897Z,34.24
2017-05-19T23:54:12.597Z,34.10
2017-05-19T23:56:39.299Z,32.64
2017-05-19T23:59:06.015Z,34.08
